sensor_id;sensor_type;location;lat;lon;timestamp;P1;durP1;ratioP1;P2;durP2;ratioP2
4194;SDS011;2111;48.050;11.626;2022-07-15T00:02:24;1.67;;;1.10;;
4194;SDS011;2111;48.050;11.626;2022-07-15T00:04:51;1.92;;;0.88;;
4194;SDS011;2111;48.050;11.626;2022-07-15T00:07:18;2.47;;;1.25;;
4194;SDS011;2111;48.050;11.626;2022-07-15T00:09:46;1.42;;;0.98;;
4194;SDS011;2111;48.050;11.626;2022-07-15T00:12:32;3.45;;;1.23;;
4194;SDS011;2111;48.050;11.626;2022-07-15T00:14:59;1.35;;;1.25;;
4194;SDS011;2111;48.050;11.626;2022-07-15T00:17:27;1.02;;;0.93;;
4194;SDS011;2111;48.050;11.626;2022-07-15T00:19:54;1.88;;;1.33;;
4194;SDS011;2111;48.050;11.626;2022-07-15T00:22:21;1.35;;;1.20;;
4194;SDS011;2111;48.050;11.626;2022-07-15T00:24:48;3.35;;;1.20;;
4194;SDS011;2111;48.050;11.626;2022-07-15T00:27:14;1.25;;;1.15;;
4194;SDS011;2111;48.050;11.626;2022-07-15T00:29:41;1.42;;;1.33;;
4194;SDS011;2111;48.050;11.626;2022-07-15T00:32:08;1.35;;;1.25;;
4194;SDS011;2111;48.050;11.626;2022-07-15T00:34:35;2.90;;;1.23;;
4194;SDS011;2111;48.050;11.626;2022-07-15T00:37:03;2.00;;;1.90;;
4194;SDS011;2111;48.050;11.626;2022-07-15T00:39:30;3.75;;;1.30;;
4194;SDS011;2111;48.050;11.626;2022-07-15T00:41:57;1.90;;;1.80;;
4194;SDS011;2111;48.050;11.626;2022-07-15T00:44:24;1.77;;;1.17;;
4194;SDS011;2111;48.050;11.626;2022-07-15T00:46:52;1.75;;;1.45;;
4194;SDS011;2111;48.050;11.626;2022-07-15T00:49:19;2.53;;;1.60;;
4194;SDS011;2111;48.050;11.626;2022-07-15T00:51:47;1.67;;;1.58;;
4194;SDS011;2111;48.050;11.626;2022-07-15T00:54:19;2.05;;;1.50;;
4194;SDS011;2111;48.050;11.626;2022-07-15T00:56:50;3.88;;;1.90;;
4194;SDS011;2111;48.050;11.626;2022-07-15T00:59:20;1.70;;;1.60;;
4194;SDS011;2111;48.050;11.626;2022-07-15T01:01:48;2.13;;;1.40;;
4194;SDS011;2111;48.050;11.626;2022-07-15T01:04:17;2.35;;;1.42;;
4194;SDS011;2111;48.050;11.626;2022-07-15T01:06:45;1.52;;;1.38;;
4194;SDS011;2111;48.050;11.626;2022-07-15T01:09:11;3.22;;;1.50;;
4194;SDS011;2111;48.050;11.626;2022-07-15T01:11:38;1.80;;;1.65;;
4194;SDS011;2111;48.050;11.626;2022-07-15T01:14:05;3.03;;;1.60;;
4194;SDS011;2111;48.050;11.626;2022-07-15T01:16:34;2.17;;;1.75;;
4194;SDS011;2111;48.050;11.626;2022-07-15T01:19:01;2.97;;;2.00;;
4194;SDS011;2111;48.050;11.626;2022-07-15T01:21:28;2.33;;;1.67;;
4194;SDS011;2111;48.050;11.626;2022-07-15T01:23:55;2.70;;;1.50;;
4194;SDS011;2111;48.050;11.626;2022-07-15T01:26:22;2.28;;;2.08;;
4194;SDS011;2111;48.050;11.626;2022-07-15T01:28:49;2.90;;;1.90;;
4194;SDS011;2111;48.050;11.626;2022-07-15T01:31:16;2.38;;;1.67;;
4194;SDS011;2111;48.050;11.626;2022-07-15T01:33:43;2.30;;;1.52;;
4194;SDS011;2111;48.050;11.626;2022-07-15T01:36:10;2.53;;;2.00;;
4194;SDS011;2111;48.050;11.626;2022-07-15T01:38:37;3.85;;;1.90;;
4194;SDS011;2111;48.050;11.626;2022-07-15T01:41:15;4.82;;;2.00;;
4194;SDS011;2111;48.050;11.626;2022-07-15T01:43:42;3.47;;;2.10;;
4194;SDS011;2111;48.050;11.626;2022-07-15T01:46:09;4.90;;;1.90;;
4194;SDS011;2111;48.050;11.626;2022-07-15T01:48:36;5.13;;;2.38;;
4194;SDS011;2111;48.050;11.626;2022-07-15T01:51:22;1.90;;;1.80;;
4194;SDS011;2111;48.050;11.626;2022-07-15T01:53:49;2.05;;;1.95;;
4194;SDS011;2111;48.050;11.626;2022-07-15T01:56:17;2.35;;;1.85;;
4194;SDS011;2111;48.050;11.626;2022-07-15T01:58:43;2.28;;;1.90;;
4194;SDS011;2111;48.050;11.626;2022-07-15T02:01:10;8.45;;;2.33;;
4194;SDS011;2111;48.050;11.626;2022-07-15T02:03:40;3.45;;;2.03;;
4194;SDS011;2111;48.050;11.626;2022-07-15T02:06:06;2.38;;;2.00;;
4194;SDS011;2111;48.050;11.626;2022-07-15T02:08:34;6.93;;;2.58;;
4194;SDS011;2111;48.050;11.626;2022-07-15T02:11:01;5.43;;;2.38;;
4194;SDS011;2111;48.050;11.626;2022-07-15T02:13:28;5.10;;;1.80;;
4194;SDS011;2111;48.050;11.626;2022-07-15T02:15:55;5.95;;;2.30;;
4194;SDS011;2111;48.050;11.626;2022-07-15T02:18:25;2.38;;;2.20;;
4194;SDS011;2111;48.050;11.626;2022-07-15T02:20:52;2.88;;;2.63;;
4194;SDS011;2111;48.050;11.626;2022-07-15T02:23:21;12.80;;;2.40;;
4194;SDS011;2111;48.050;11.626;2022-07-15T02:25:49;5.55;;;2.13;;
4194;SDS011;2111;48.050;11.626;2022-07-15T02:28:16;2.50;;;1.90;;
4194;SDS011;2111;48.050;11.626;2022-07-15T02:30:44;3.05;;;2.15;;
4194;SDS011;2111;48.050;11.626;2022-07-15T02:33:11;4.85;;;2.40;;
4194;SDS011;2111;48.050;11.626;2022-07-15T02:35:40;2.85;;;2.38;;
4194;SDS011;2111;48.050;11.626;2022-07-15T02:38:08;3.30;;;2.42;;
4194;SDS011;2111;48.050;11.626;2022-07-15T02:40:35;3.65;;;2.60;;
4194;SDS011;2111;48.050;11.626;2022-07-15T02:43:09;2.60;;;2.40;;
4194;SDS011;2111;48.050;11.626;2022-07-15T02:45:36;4.10;;;2.80;;
4194;SDS011;2111;48.050;11.626;2022-07-15T02:48:04;2.55;;;2.15;;
4194;SDS011;2111;48.050;11.626;2022-07-15T02:50:31;5.25;;;2.38;;
4194;SDS011;2111;48.050;11.626;2022-07-15T02:52:58;2.78;;;2.55;;
4194;SDS011;2111;48.050;11.626;2022-07-15T02:55:25;5.15;;;2.05;;
4194;SDS011;2111;48.050;11.626;2022-07-15T02:57:51;5.85;;;2.10;;
4194;SDS011;2111;48.050;11.626;2022-07-15T03:00:18;4.65;;;2.53;;
4194;SDS011;2111;48.050;11.626;2022-07-15T03:02:46;2.42;;;1.77;;
4194;SDS011;2111;48.050;11.626;2022-07-15T03:05:13;5.47;;;2.58;;
4194;SDS011;2111;48.050;11.626;2022-07-15T03:07:48;4.10;;;1.95;;
4194;SDS011;2111;48.050;11.626;2022-07-15T03:10:15;4.57;;;2.40;;
4194;SDS011;2111;48.050;11.626;2022-07-15T03:12:43;8.02;;;2.65;;
4194;SDS011;2111;48.050;11.626;2022-07-15T03:15:10;11.32;;;2.28;;
4194;SDS011;2111;48.050;11.626;2022-07-15T03:17:40;4.20;;;2.28;;
4194;SDS011;2111;48.050;11.626;2022-07-15T03:20:08;2.50;;;2.20;;
4194;SDS011;2111;48.050;11.626;2022-07-15T03:22:36;3.67;;;1.75;;
4194;SDS011;2111;48.050;11.626;2022-07-15T03:25:03;5.55;;;1.92;;
4194;SDS011;2111;48.050;11.626;2022-07-15T03:27:30;2.25;;;1.63;;
4194;SDS011;2111;48.050;11.626;2022-07-15T03:29:57;3.03;;;1.63;;
4194;SDS011;2111;48.050;11.626;2022-07-15T03:32:25;2.47;;;1.48;;
4194;SDS011;2111;48.050;11.626;2022-07-15T03:34:52;6.68;;;1.70;;
4194;SDS011;2111;48.050;11.626;2022-07-15T03:37:23;2.45;;;1.38;;
4194;SDS011;2111;48.050;11.626;2022-07-15T03:39:50;3.60;;;1.63;;
4194;SDS011;2111;48.050;11.626;2022-07-15T03:42:17;5.85;;;1.75;;
4194;SDS011;2111;48.050;11.626;2022-07-15T03:44:44;2.22;;;1.40;;
4194;SDS011;2111;48.050;11.626;2022-07-15T03:47:11;3.17;;;1.50;;
4194;SDS011;2111;48.050;11.626;2022-07-15T03:49:38;6.88;;;1.55;;
4194;SDS011;2111;48.050;11.626;2022-07-15T03:52:06;2.72;;;1.33;;
4194;SDS011;2111;48.050;11.626;2022-07-15T03:54:33;1.95;;;1.10;;
4194;SDS011;2111;48.050;11.626;2022-07-15T03:57:00;1.83;;;1.38;;
4194;SDS011;2111;48.050;11.626;2022-07-15T03:59:27;4.13;;;1.58;;
4194;SDS011;2111;48.050;11.626;2022-07-15T04:01:54;3.22;;;1.50;;
4194;SDS011;2111;48.050;11.626;2022-07-15T04:04:21;2.42;;;1.20;;
4194;SDS011;2111;48.050;11.626;2022-07-15T04:06:48;4.57;;;1.67;;
4194;SDS011;2111;48.050;11.626;2022-07-15T04:09:14;3.55;;;1.52;;
4194;SDS011;2111;48.050;11.626;2022-07-15T04:11:42;7.28;;;1.25;;
4194;SDS011;2111;48.050;11.626;2022-07-15T04:14:10;2.78;;;1.23;;
4194;SDS011;2111;48.050;11.626;2022-07-15T04:16:39;3.63;;;1.77;;
4194;SDS011;2111;48.050;11.626;2022-07-15T04:19:12;3.22;;;1.30;;
4194;SDS011;2111;48.050;11.626;2022-07-15T04:21:39;3.20;;;1.30;;
4194;SDS011;2111;48.050;11.626;2022-07-15T04:24:05;1.30;;;0.95;;
4194;SDS011;2111;48.050;11.626;2022-07-15T04:26:32;2.50;;;1.35;;
4194;SDS011;2111;48.050;11.626;2022-07-15T04:28:59;4.03;;;1.20;;
4194;SDS011;2111;48.050;11.626;2022-07-15T04:31:26;2.30;;;1.33;;
4194;SDS011;2111;48.050;11.626;2022-07-15T04:33:54;1.77;;;1.30;;
4194;SDS011;2111;48.050;11.626;2022-07-15T04:36:20;1.50;;;1.13;;
4194;SDS011;2111;48.050;11.626;2022-07-15T04:38:47;3.13;;;1.38;;
4194;SDS011;2111;48.050;11.626;2022-07-15T04:41:14;5.75;;;1.45;;
4194;SDS011;2111;48.050;11.626;2022-07-15T04:43:41;2.28;;;1.42;;
4194;SDS011;2111;48.050;11.626;2022-07-15T04:46:08;1.10;;;1.00;;
4194;SDS011;2111;48.050;11.626;2022-07-15T04:48:35;5.72;;;1.50;;
4194;SDS011;2111;48.050;11.626;2022-07-15T04:51:20;2.08;;;1.20;;
4194;SDS011;2111;48.050;11.626;2022-07-15T04:53:47;2.58;;;1.23;;
4194;SDS011;2111;48.050;11.626;2022-07-15T04:56:15;2.33;;;1.20;;
4194;SDS011;2111;48.050;11.626;2022-07-15T04:58:42;1.48;;;1.10;;
4194;SDS011;2111;48.050;11.626;2022-07-15T05:01:08;4.35;;;1.35;;
4194;SDS011;2111;48.050;11.626;2022-07-15T05:03:36;2.45;;;1.10;;
4194;SDS011;2111;48.050;11.626;2022-07-15T05:06:03;2.88;;;1.10;;
4194;SDS011;2111;48.050;11.626;2022-07-15T05:08:30;2.80;;;1.38;;
4194;SDS011;2111;48.050;11.626;2022-07-15T05:10:57;3.25;;;1.20;;
4194;SDS011;2111;48.050;11.626;2022-07-15T05:13:24;1.75;;;1.27;;
4194;SDS011;2111;48.050;11.626;2022-07-15T05:15:51;1.95;;;1.35;;
4194;SDS011;2111;48.050;11.626;2022-07-15T05:18:18;1.58;;;1.45;;
4194;SDS011;2111;48.050;11.626;2022-07-15T05:20:45;1.35;;;1.00;;
4194;SDS011;2111;48.050;11.626;2022-07-15T05:23:12;3.83;;;1.40;;
4194;SDS011;2111;48.050;11.626;2022-07-15T05:25:38;3.58;;;1.10;;
4194;SDS011;2111;48.050;11.626;2022-07-15T05:28:05;2.00;;;1.55;;
4194;SDS011;2111;48.050;11.626;2022-07-15T05:30:32;1.45;;;1.35;;
4194;SDS011;2111;48.050;11.626;2022-07-15T05:33:01;7.93;;;2.05;;
4194;SDS011;2111;48.050;11.626;2022-07-15T05:35:28;7.55;;;1.80;;
4194;SDS011;2111;48.050;11.626;2022-07-15T05:37:54;3.40;;;1.73;;
4194;SDS011;2111;48.050;11.626;2022-07-15T05:40:21;1.60;;;1.48;;
4194;SDS011;2111;48.050;11.626;2022-07-15T05:42:48;6.70;;;1.50;;
4194;SDS011;2111;48.050;11.626;2022-07-15T05:45:15;3.20;;;1.40;;
4194;SDS011;2111;48.050;11.626;2022-07-15T05:47:49;4.97;;;1.77;;
4194;SDS011;2111;48.050;11.626;2022-07-15T05:50:16;1.83;;;1.17;;
4194;SDS011;2111;48.050;11.626;2022-07-15T05:52:43;1.23;;;1.13;;
4194;SDS011;2111;48.050;11.626;2022-07-15T05:55:10;1.48;;;1.20;;
4194;SDS011;2111;48.050;11.626;2022-07-15T05:57:37;4.72;;;1.20;;
4194;SDS011;2111;48.050;11.626;2022-07-15T06:00:11;2.08;;;1.50;;
4194;SDS011;2111;48.050;11.626;2022-07-15T06:02:38;6.55;;;1.50;;
4194;SDS011;2111;48.050;11.626;2022-07-15T06:05:05;1.33;;;0.95;;
4194;SDS011;2111;48.050;11.626;2022-07-15T06:07:33;4.00;;;1.00;;
4194;SDS011;2111;48.050;11.626;2022-07-15T06:10:00;3.33;;;1.20;;
4194;SDS011;2111;48.050;11.626;2022-07-15T06:12:27;2.50;;;1.40;;
4194;SDS011;2111;48.050;11.626;2022-07-15T06:14:54;1.85;;;1.10;;
4194;SDS011;2111;48.050;11.626;2022-07-15T06:17:21;3.28;;;1.13;;
4194;SDS011;2111;48.050;11.626;2022-07-15T06:19:48;5.80;;;1.05;;
4194;SDS011;2111;48.050;11.626;2022-07-15T06:22:14;2.58;;;1.17;;
4194;SDS011;2111;48.050;11.626;2022-07-15T06:24:41;1.40;;;1.30;;
4194;SDS011;2111;48.050;11.626;2022-07-15T06:27:08;1.52;;;1.42;;
4194;SDS011;2111;48.050;11.626;2022-07-15T06:29:35;4.03;;;1.40;;
4194;SDS011;2111;48.050;11.626;2022-07-15T06:32:02;3.00;;;1.30;;
4194;SDS011;2111;48.050;11.626;2022-07-15T06:34:29;3.33;;;1.30;;
4194;SDS011;2111;48.050;11.626;2022-07-15T06:36:57;1.48;;;1.27;;
4194;SDS011;2111;48.050;11.626;2022-07-15T06:39:25;3.35;;;1.30;;
4194;SDS011;2111;48.050;11.626;2022-07-15T06:41:52;1.42;;;0.95;;
4194;SDS011;2111;48.050;11.626;2022-07-15T06:44:19;3.75;;;1.23;;
4194;SDS011;2111;48.050;11.626;2022-07-15T06:46:46;2.50;;;1.38;;
4194;SDS011;2111;48.050;11.626;2022-07-15T06:49:14;1.45;;;1.10;;
4194;SDS011;2111;48.050;11.626;2022-07-15T06:51:41;4.13;;;1.00;;
4194;SDS011;2111;48.050;11.626;2022-07-15T06:54:08;2.67;;;0.90;;
4194;SDS011;2111;48.050;11.626;2022-07-15T06:56:35;3.25;;;1.27;;
4194;SDS011;2111;48.050;11.626;2022-07-15T06:59:01;4.20;;;1.20;;
4194;SDS011;2111;48.050;11.626;2022-07-15T07:01:28;5.47;;;1.23;;
4194;SDS011;2111;48.050;11.626;2022-07-15T07:03:55;4.90;;;1.05;;
4194;SDS011;2111;48.050;11.626;2022-07-15T07:06:25;6.72;;;1.27;;
4194;SDS011;2111;48.050;11.626;2022-07-15T07:08:52;1.58;;;0.90;;
4194;SDS011;2111;48.050;11.626;2022-07-15T07:11:19;2.03;;;1.23;;
4194;SDS011;2111;48.050;11.626;2022-07-15T07:13:47;3.10;;;0.82;;
4194;SDS011;2111;48.050;11.626;2022-07-15T07:16:14;2.30;;;0.85;;
4194;SDS011;2111;48.050;11.626;2022-07-15T07:18:41;3.35;;;0.80;;
4194;SDS011;2111;48.050;11.626;2022-07-15T07:21:11;1.35;;;0.75;;
4194;SDS011;2111;48.050;11.626;2022-07-15T07:23:39;1.52;;;0.88;;
4194;SDS011;2111;48.050;11.626;2022-07-15T07:26:06;4.15;;;0.88;;
4194;SDS011;2111;48.050;11.626;2022-07-15T07:28:34;2.10;;;0.70;;
4194;SDS011;2111;48.050;11.626;2022-07-15T07:31:02;3.53;;;0.80;;
4194;SDS011;2111;48.050;11.626;2022-07-15T07:33:28;1.40;;;0.80;;
4194;SDS011;2111;48.050;11.626;2022-07-15T07:35:55;2.53;;;0.82;;
4194;SDS011;2111;48.050;11.626;2022-07-15T07:38:22;3.25;;;1.00;;
4194;SDS011;2111;48.050;11.626;2022-07-15T07:40:49;2.05;;;0.95;;
4194;SDS011;2111;48.050;11.626;2022-07-15T07:43:17;1.75;;;0.75;;
4194;SDS011;2111;48.050;11.626;2022-07-15T07:45:45;1.83;;;1.00;;
4194;SDS011;2111;48.050;11.626;2022-07-15T07:48:12;1.10;;;0.90;;
4194;SDS011;2111;48.050;11.626;2022-07-15T07:50:39;1.85;;;1.15;;
4194;SDS011;2111;48.050;11.626;2022-07-15T07:53:07;1.98;;;0.60;;
4194;SDS011;2111;48.050;11.626;2022-07-15T07:55:33;3.40;;;1.00;;
4194;SDS011;2111;48.050;11.626;2022-07-15T07:58:00;4.40;;;0.90;;
4194;SDS011;2111;48.050;11.626;2022-07-15T08:00:28;2.33;;;0.90;;
4194;SDS011;2111;48.050;11.626;2022-07-15T08:02:57;2.03;;;0.63;;
4194;SDS011;2111;48.050;11.626;2022-07-15T08:05:24;1.77;;;0.60;;
4194;SDS011;2111;48.050;11.626;2022-07-15T08:10:47;1.23;;;0.60;;
4194;SDS011;2111;48.050;11.626;2022-07-15T08:13:16;4.75;;;0.85;;
4194;SDS011;2111;48.050;11.626;2022-07-15T08:15:44;1.65;;;0.70;;
4194;SDS011;2111;48.050;11.626;2022-07-15T08:18:12;2.00;;;0.82;;
4194;SDS011;2111;48.050;11.626;2022-07-15T08:20:40;2.20;;;0.90;;
4194;SDS011;2111;48.050;11.626;2022-07-15T08:23:07;1.77;;;0.70;;
4194;SDS011;2111;48.050;11.626;2022-07-15T08:25:35;1.30;;;1.08;;
4194;SDS011;2111;48.050;11.626;2022-07-15T08:28:03;3.08;;;0.88;;
4194;SDS011;2111;48.050;11.626;2022-07-15T08:30:30;2.03;;;0.73;;
4194;SDS011;2111;48.050;11.626;2022-07-15T08:32:59;2.53;;;0.63;;
4194;SDS011;2111;48.050;11.626;2022-07-15T08:35:27;1.10;;;1.00;;
4194;SDS011;2111;48.050;11.626;2022-07-15T08:37:54;0.63;;;0.63;;
4194;SDS011;2111;48.050;11.626;2022-07-15T08:40:21;1.08;;;0.82;;
4194;SDS011;2111;48.050;11.626;2022-07-15T08:42:50;3.50;;;1.00;;
4194;SDS011;2111;48.050;11.626;2022-07-15T08:45:17;1.10;;;0.82;;
4194;SDS011;2111;48.050;11.626;2022-07-15T08:47:44;4.47;;;0.80;;
4194;SDS011;2111;48.050;11.626;2022-07-15T08:50:20;1.27;;;1.00;;
4194;SDS011;2111;48.050;11.626;2022-07-15T08:52:48;1.40;;;0.85;;
4194;SDS011;2111;48.050;11.626;2022-07-15T08:55:18;2.67;;;1.00;;
4194;SDS011;2111;48.050;11.626;2022-07-15T08:57:45;2.13;;;1.23;;
4194;SDS011;2111;48.050;11.626;2022-07-15T09:00:13;1.83;;;1.02;;
4194;SDS011;2111;48.050;11.626;2022-07-15T09:02:41;1.17;;;1.08;;
4194;SDS011;2111;48.050;11.626;2022-07-15T09:08:03;2.13;;;1.00;;
4194;SDS011;2111;48.050;11.626;2022-07-15T09:10:46;1.80;;;1.15;;
4194;SDS011;2111;48.050;11.626;2022-07-15T09:13:34;1.35;;;1.00;;
4194;SDS011;2111;48.050;11.626;2022-07-15T09:16:03;5.05;;;1.25;;
4194;SDS011;2111;48.050;11.626;2022-07-15T09:18:39;3.67;;;1.15;;
4194;SDS011;2111;48.050;11.626;2022-07-15T09:21:23;2.95;;;1.30;;
4194;SDS011;2111;48.050;11.626;2022-07-15T09:23:54;2.75;;;1.27;;
4194;SDS011;2111;48.050;11.626;2022-07-15T09:26:28;2.05;;;1.17;;
4194;SDS011;2111;48.050;11.626;2022-07-15T09:28:59;3.60;;;1.00;;
4194;SDS011;2111;48.050;11.626;2022-07-15T09:31:30;1.90;;;1.02;;
4194;SDS011;2111;48.050;11.626;2022-07-15T09:34:18;2.17;;;1.10;;
4194;SDS011;2111;48.050;11.626;2022-07-15T09:36:46;4.78;;;1.30;;
4194;SDS011;2111;48.050;11.626;2022-07-15T09:39:20;1.48;;;1.02;;
4194;SDS011;2111;48.050;11.626;2022-07-15T09:41:48;1.63;;;0.85;;
4194;SDS011;2111;48.050;11.626;2022-07-15T09:44:16;2.88;;;1.10;;
4194;SDS011;2111;48.050;11.626;2022-07-15T09:46:45;3.70;;;0.90;;
4194;SDS011;2111;48.050;11.626;2022-07-15T09:49:30;3.03;;;1.13;;
4194;SDS011;2111;48.050;11.626;2022-07-15T09:52:06;2.00;;;1.02;;
4194;SDS011;2111;48.050;11.626;2022-07-15T09:54:41;4.15;;;0.90;;
4194;SDS011;2111;48.050;11.626;2022-07-15T09:57:10;4.57;;;0.77;;
4194;SDS011;2111;48.050;11.626;2022-07-15T09:59:44;2.30;;;1.13;;
4194;SDS011;2111;48.050;11.626;2022-07-15T10:02:14;3.90;;;1.05;;
4194;SDS011;2111;48.050;11.626;2022-07-15T10:04:41;1.10;;;0.82;;
4194;SDS011;2111;48.050;11.626;2022-07-15T10:07:11;1.83;;;0.90;;
4194;SDS011;2111;48.050;11.626;2022-07-15T10:09:55;3.22;;;1.00;;
4194;SDS011;2111;48.050;11.626;2022-07-15T10:12:33;1.05;;;0.80;;
4194;SDS011;2111;48.050;11.626;2022-07-15T10:15:15;1.00;;;0.60;;
4194;SDS011;2111;48.050;11.626;2022-07-15T10:28:46;3.25;;;1.20;;
4194;SDS011;2111;48.050;11.626;2022-07-15T10:31:28;3.95;;;0.82;;
4194;SDS011;2111;48.050;11.626;2022-07-15T10:36:39;2.75;;;1.20;;
4194;SDS011;2111;48.050;11.626;2022-07-15T10:39:07;2.80;;;0.85;;
4194;SDS011;2111;48.050;11.626;2022-07-15T10:44:14;2.25;;;1.02;;
4194;SDS011;2111;48.050;11.626;2022-07-15T10:46:41;1.48;;;1.20;;
4194;SDS011;2111;48.050;11.626;2022-07-15T10:54:48;1.40;;;0.90;;
4194;SDS011;2111;48.050;11.626;2022-07-15T10:56:54;1.63;;;1.08;;
4194;SDS011;2111;48.050;11.626;2022-07-15T10:59:21;3.00;;;1.13;;
4194;SDS011;2111;48.050;11.626;2022-07-15T11:04:26;2.75;;;0.90;;
4194;SDS011;2111;48.050;11.626;2022-07-15T11:12:17;3.08;;;1.05;;
4194;SDS011;2111;48.050;11.626;2022-07-15T11:20:02;1.40;;;0.90;;
4194;SDS011;2111;48.050;11.626;2022-07-15T11:22:35;2.63;;;1.08;;
4194;SDS011;2111;48.050;11.626;2022-07-15T11:25:17;3.20;;;1.10;;
4194;SDS011;2111;48.050;11.626;2022-07-15T11:27:55;1.33;;;0.98;;
4194;SDS011;2111;48.050;11.626;2022-07-15T11:30:24;3.55;;;1.00;;
4194;SDS011;2111;48.050;11.626;2022-07-15T11:32:54;1.45;;;0.93;;
4194;SDS011;2111;48.050;11.626;2022-07-15T11:35:24;3.63;;;1.20;;
4194;SDS011;2111;48.050;11.626;2022-07-15T11:38:02;1.88;;;1.20;;
4194;SDS011;2111;48.050;11.626;2022-07-15T11:40:30;2.90;;;1.20;;
4194;SDS011;2111;48.050;11.626;2022-07-15T11:43:17;2.45;;;1.38;;
4194;SDS011;2111;48.050;11.626;2022-07-15T11:46:04;1.63;;;1.00;;
4194;SDS011;2111;48.050;11.626;2022-07-15T11:48:36;2.13;;;1.05;;
4194;SDS011;2111;48.050;11.626;2022-07-15T11:51:04;1.95;;;1.10;;
4194;SDS011;2111;48.050;11.626;2022-07-15T11:53:43;2.05;;;1.20;;
4194;SDS011;2111;48.050;11.626;2022-07-15T11:56:12;2.65;;;1.30;;
4194;SDS011;2111;48.050;11.626;2022-07-15T11:58:41;2.60;;;0.98;;
4194;SDS011;2111;48.050;11.626;2022-07-15T12:01:12;2.80;;;1.23;;
4194;SDS011;2111;48.050;11.626;2022-07-15T12:03:45;1.35;;;0.93;;
4194;SDS011;2111;48.050;11.626;2022-07-15T12:08:41;2.00;;;1.13;;
4194;SDS011;2111;48.050;11.626;2022-07-15T12:11:09;2.30;;;1.00;;
4194;SDS011;2111;48.050;11.626;2022-07-15T12:13:49;2.35;;;1.05;;
4194;SDS011;2111;48.050;11.626;2022-07-15T12:16:32;1.80;;;1.10;;
4194;SDS011;2111;48.050;11.626;2022-07-15T12:19:22;1.70;;;0.77;;
4194;SDS011;2111;48.050;11.626;2022-07-15T12:21:53;0.95;;;0.80;;
4194;SDS011;2111;48.050;11.626;2022-07-15T12:24:21;2.85;;;1.20;;
4194;SDS011;2111;48.050;11.626;2022-07-15T12:29:22;2.15;;;1.27;;
4194;SDS011;2111;48.050;11.626;2022-07-15T12:32:11;1.05;;;1.00;;
4194;SDS011;2111;48.050;11.626;2022-07-15T12:34:52;4.20;;;1.23;;
4194;SDS011;2111;48.050;11.626;2022-07-15T12:38:06;3.80;;;1.58;;
4194;SDS011;2111;48.050;11.626;2022-07-15T12:40:11;1.73;;;1.00;;
4194;SDS011;2111;48.050;11.626;2022-07-15T12:42:40;1.70;;;0.90;;
4194;SDS011;2111;48.050;11.626;2022-07-15T12:45:15;1.30;;;1.20;;
4194;SDS011;2111;48.050;11.626;2022-07-15T12:50:32;2.63;;;1.10;;
4194;SDS011;2111;48.050;11.626;2022-07-15T12:53:22;1.67;;;0.85;;
4194;SDS011;2111;48.050;11.626;2022-07-15T12:55:51;1.58;;;1.08;;
4194;SDS011;2111;48.050;11.626;2022-07-15T12:58:23;3.40;;;1.02;;
4194;SDS011;2111;48.050;11.626;2022-07-15T13:00:51;1.27;;;0.98;;
4194;SDS011;2111;48.050;11.626;2022-07-15T13:05:51;3.00;;;1.33;;
4194;SDS011;2111;48.050;11.626;2022-07-15T13:08:20;2.83;;;0.90;;
4194;SDS011;2111;48.050;11.626;2022-07-15T13:10:49;6.05;;;1.27;;
4194;SDS011;2111;48.050;11.626;2022-07-15T13:13:17;1.05;;;0.98;;
4194;SDS011;2111;48.050;11.626;2022-07-15T13:15:46;3.10;;;1.10;;
4194;SDS011;2111;48.050;11.626;2022-07-15T13:18:14;1.52;;;0.95;;
4194;SDS011;2111;48.050;11.626;2022-07-15T13:20:42;4.85;;;1.20;;
4194;SDS011;2111;48.050;11.626;2022-07-15T13:23:09;4.43;;;0.90;;
4194;SDS011;2111;48.050;11.626;2022-07-15T13:25:37;1.23;;;1.00;;
4194;SDS011;2111;48.050;11.626;2022-07-15T13:28:07;0.88;;;0.88;;
4194;SDS011;2111;48.050;11.626;2022-07-15T13:30:35;3.00;;;1.00;;
4194;SDS011;2111;48.050;11.626;2022-07-15T13:33:03;2.65;;;1.00;;
4194;SDS011;2111;48.050;11.626;2022-07-15T13:35:30;0.98;;;0.80;;
4194;SDS011;2111;48.050;11.626;2022-07-15T13:37:57;3.90;;;1.10;;
4194;SDS011;2111;48.050;11.626;2022-07-15T13:40:23;3.33;;;1.08;;
4194;SDS011;2111;48.050;11.626;2022-07-15T13:42:50;3.30;;;1.10;;
4194;SDS011;2111;48.050;11.626;2022-07-15T13:45:18;2.28;;;1.05;;
4194;SDS011;2111;48.050;11.626;2022-07-15T13:47:45;1.10;;;0.90;;
4194;SDS011;2111;48.050;11.626;2022-07-15T13:50:12;2.35;;;1.00;;
4194;SDS011;2111;48.050;11.626;2022-07-15T13:52:58;1.35;;;1.10;;
4194;SDS011;2111;48.050;11.626;2022-07-15T13:55:25;3.25;;;0.90;;
4194;SDS011;2111;48.050;11.626;2022-07-15T13:57:52;1.60;;;0.90;;
4194;SDS011;2111;48.050;11.626;2022-07-15T14:00:20;2.83;;;1.08;;
4194;SDS011;2111;48.050;11.626;2022-07-15T14:02:49;3.83;;;1.27;;
4194;SDS011;2111;48.050;11.626;2022-07-15T14:05:17;1.88;;;1.05;;
4194;SDS011;2111;48.050;11.626;2022-07-15T14:07:44;1.63;;;0.85;;
4194;SDS011;2111;48.050;11.626;2022-07-15T14:10:12;2.05;;;0.95;;
4194;SDS011;2111;48.050;11.626;2022-07-15T14:12:39;3.50;;;0.90;;
4194;SDS011;2111;48.050;11.626;2022-07-15T14:15:06;1.02;;;0.80;;
4194;SDS011;2111;48.050;11.626;2022-07-15T14:17:33;2.22;;;1.00;;
4194;SDS011;2111;48.050;11.626;2022-07-15T14:20:00;1.60;;;1.00;;
4194;SDS011;2111;48.050;11.626;2022-07-15T14:22:28;2.63;;;0.90;;
4194;SDS011;2111;48.050;11.626;2022-07-15T14:24:56;2.15;;;1.10;;
4194;SDS011;2111;48.050;11.626;2022-07-15T14:27:23;1.20;;;0.90;;
4194;SDS011;2111;48.050;11.626;2022-07-15T14:29:51;2.85;;;1.00;;
4194;SDS011;2111;48.050;11.626;2022-07-15T14:32:22;0.98;;;0.63;;
4194;SDS011;2111;48.050;11.626;2022-07-15T14:34:52;3.03;;;1.10;;
4194;SDS011;2111;48.050;11.626;2022-07-15T14:37:19;3.50;;;1.20;;
4194;SDS011;2111;48.050;11.626;2022-07-15T14:39:57;0.90;;;0.80;;
4194;SDS011;2111;48.050;11.626;2022-07-15T14:42:23;1.67;;;1.00;;
4194;SDS011;2111;48.050;11.626;2022-07-15T14:44:50;0.80;;;0.80;;
4194;SDS011;2111;48.050;11.626;2022-07-15T14:47:17;4.57;;;1.02;;
4194;SDS011;2111;48.050;11.626;2022-07-15T14:49:44;1.35;;;1.00;;
4194;SDS011;2111;48.050;11.626;2022-07-15T14:52:11;1.60;;;1.00;;
4194;SDS011;2111;48.050;11.626;2022-07-15T14:54:38;2.47;;;1.10;;
4194;SDS011;2111;48.050;11.626;2022-07-15T14:57:05;4.32;;;1.08;;
4194;SDS011;2111;48.050;11.626;2022-07-15T14:59:32;1.00;;;0.90;;
4194;SDS011;2111;48.050;11.626;2022-07-15T15:02:04;1.48;;;0.90;;
4194;SDS011;2111;48.050;11.626;2022-07-15T15:04:32;3.33;;;1.10;;
4194;SDS011;2111;48.050;11.626;2022-07-15T15:06:59;1.48;;;1.08;;
4194;SDS011;2111;48.050;11.626;2022-07-15T15:09:26;6.53;;;1.42;;
4194;SDS011;2111;48.050;11.626;2022-07-15T15:11:53;1.13;;;0.90;;
4194;SDS011;2111;48.050;11.626;2022-07-15T15:14:20;3.95;;;1.40;;
4194;SDS011;2111;48.050;11.626;2022-07-15T15:16:47;2.92;;;0.90;;
4194;SDS011;2111;48.050;11.626;2022-07-15T15:19:33;0.60;;;0.60;;
4194;SDS011;2111;48.050;11.626;2022-07-15T15:22:01;6.07;;;1.25;;
4194;SDS011;2111;48.050;11.626;2022-07-15T15:24:29;1.15;;;0.70;;
4194;SDS011;2111;48.050;11.626;2022-07-15T15:26:57;2.38;;;1.00;;
4194;SDS011;2111;48.050;11.626;2022-07-15T15:29:25;2.05;;;1.13;;
4194;SDS011;2111;48.050;11.626;2022-07-15T15:31:52;0.95;;;0.88;;
4194;SDS011;2111;48.050;11.626;2022-07-15T15:34:19;1.00;;;0.90;;
4194;SDS011;2111;48.050;11.626;2022-07-15T15:36:46;1.17;;;0.70;;
4194;SDS011;2111;48.050;11.626;2022-07-15T15:39:14;1.83;;;0.90;;
4194;SDS011;2111;48.050;11.626;2022-07-15T15:41:42;2.20;;;0.98;;
4194;SDS011;2111;48.050;11.626;2022-07-15T15:44:09;2.75;;;1.00;;
4194;SDS011;2111;48.050;11.626;2022-07-15T15:46:36;3.85;;;1.00;;
4194;SDS011;2111;48.050;11.626;2022-07-15T15:49:03;4.65;;;0.95;;
4194;SDS011;2111;48.050;11.626;2022-07-15T15:51:30;2.45;;;0.93;;
4194;SDS011;2111;48.050;11.626;2022-07-15T15:53:57;3.17;;;1.10;;
4194;SDS011;2111;48.050;11.626;2022-07-15T15:56:24;0.57;;;0.57;;
4194;SDS011;2111;48.050;11.626;2022-07-15T15:58:51;4.15;;;0.90;;
4194;SDS011;2111;48.050;11.626;2022-07-15T16:01:18;2.67;;;0.93;;
4194;SDS011;2111;48.050;11.626;2022-07-15T16:03:45;2.85;;;0.98;;